< < Back
Terminal Aerodrome Forecast


Current Version              Previous Versions:   1  2  3  4  5  6  7  8  9  

Terminal Aerodrome Forecast

725
FTUS44 KBMX 260500
TAFTCL
TAF
KTCL 260522Z 2606/2706 00000KT 6SM BR SCT250
     FM261600 24006KT P6SM FEW050=

Latest METAR

536
SAUS70 KWBC 261100 RRK
MTRTCL
METAR KTCL 261053Z AUTO 00000KT 9SM CLR 19/18 A3004 RMK AO2 SLP169
T01940178


USA.gov is the U.S. government's official web portal to all federal, state and local government web resources and services.